Water Island, Virgin Islands
Current Conditions -  °F | °C
As of 9:00 PM on Sunday 21 Dec 2014 (Local Time) from TUPJ Reporting Station
Few Clouds Few Clouds  
Wind Chill: 77°   Ceiling: Unl
Heat Index: 79°   Visibility: 6mi
Dew Point: 70°   Wind: 7mph
Humidity: 78%   Direction: 70°ENE
Pressure: 30.06"   Gusts: NA
Location:  18.32°N, 64.95°W
Report Text: TUPJ 220100Z 07006KT 9999 FEW023 25/21 Q1018 RMK A3007
Loading
Personal Weather Stations






























Interactive Weather Map New forecast layout! Learn more

10-Day Weather Forecast

Advertisements
Track Severe Weather on mobile